sensor_id;sensor_type;location;lat;lon;timestamp;pressure;altitude;pressure_sealevel;temperature;humidity
63535;BME280;55128;50.230;18.944;2023-11-19T00:00:20;98944.50;;;-0.92;91.66
63535;BME280;55128;50.230;18.944;2023-11-19T00:05:20;98935.72;;;-1.14;91.83
63535;BME280;55128;50.230;18.944;2023-11-19T00:10:21;98934.91;;;-1.01;92.70
63535;BME280;55128;50.230;18.944;2023-11-19T00:15:21;98940.13;;;-0.98;92.11
63535;BME280;55128;50.230;18.944;2023-11-19T00:20:22;98928.94;;;-0.80;91.56
63535;BME280;55128;50.230;18.944;2023-11-19T00:25:22;98933.28;;;-0.79;91.52
63535;BME280;55128;50.230;18.944;2023-11-19T00:30:22;98922.84;;;-0.79;91.37
63535;BME280;55128;50.230;18.944;2023-11-19T00:35:23;98925.47;;;-0.81;91.27
63535;BME280;55128;50.230;18.944;2023-11-19T00:40:23;98923.72;;;-0.80;91.29
63535;BME280;55128;50.230;18.944;2023-11-19T00:45:24;98931.56;;;-0.72;91.37
63535;BME280;55128;50.230;18.944;2023-11-19T00:50:25;98922.06;;;-0.67;90.88
63535;BME280;55128;50.230;18.944;2023-11-19T00:55:25;98915.94;;;-0.68;90.98
63535;BME280;55128;50.230;18.944;2023-11-19T01:00:25;98910.75;;;-0.69;91.44
63535;BME280;55128;50.230;18.944;2023-11-19T01:05:27;98915.06;;;-0.73;91.19
63535;BME280;55128;50.230;18.944;2023-11-19T01:10:28;98909.81;;;-0.77;91.05
63535;BME280;55128;50.230;18.944;2023-11-19T01:15:29;98915.88;;;-0.83;91.23
63535;BME280;55128;50.230;18.944;2023-11-19T01:20:29;98897.63;;;-0.85;91.57
63535;BME280;55128;50.230;18.944;2023-11-19T01:25:29;98888.97;;;-0.79;91.32
63535;BME280;55128;50.230;18.944;2023-11-19T01:30:30;98876.78;;;-0.89;91.20
63535;BME280;55128;50.230;18.944;2023-11-19T01:35:31;98854.19;;;-0.95;91.68
63535;BME280;55128;50.230;18.944;2023-11-19T01:40:31;98857.56;;;-1.13;92.42
63535;BME280;55128;50.230;18.944;2023-11-19T01:45:33;98855.88;;;-1.06;92.50
63535;BME280;55128;50.230;18.944;2023-11-19T01:50:34;98840.19;;;-1.11;91.93
63535;BME280;55128;50.230;18.944;2023-11-19T01:55:34;98821.97;;;-1.15;91.97
63535;BME280;55128;50.230;18.944;2023-11-19T02:00:35;98815.84;;;-1.22;91.55
63535;BME280;55128;50.230;18.944;2023-11-19T02:05:35;98812.31;;;-1.33;91.52
63535;BME280;55128;50.230;18.944;2023-11-19T02:10:37;98787.19;;;-1.33;91.50
63535;BME280;55128;50.230;18.944;2023-11-19T02:15:37;98780.16;;;-1.45;92.01
63535;BME280;55128;50.230;18.944;2023-11-19T02:20:37;98747.22;;;-1.44;92.72
63535;BME280;55128;50.230;18.944;2023-11-19T02:25:39;98737.69;;;-1.41;92.93
63535;BME280;55128;50.230;18.944;2023-11-19T02:30:40;98733.34;;;-1.28;93.08
63535;BME280;55128;50.230;18.944;2023-11-19T02:35:41;98724.69;;;-1.30;92.87
63535;BME280;55128;50.230;18.944;2023-11-19T02:40:41;98728.13;;;-1.37;92.31
63535;BME280;55128;50.230;18.944;2023-11-19T02:45:43;98704.69;;;-1.46;92.15
63535;BME280;55128;50.230;18.944;2023-11-19T02:50:45;98688.16;;;-1.54;92.06
63535;BME280;55128;50.230;18.944;2023-11-19T02:55:47;98691.63;;;-1.55;92.28
63535;BME280;55128;50.230;18.944;2023-11-19T03:00:50;98675.09;;;-1.64;92.05
63535;BME280;55128;50.230;18.944;2023-11-19T03:06:02;98676.81;;;-1.73;92.49
63535;BME280;55128;50.230;18.944;2023-11-19T03:11:05;98692.47;;;-1.64;92.27
63535;BME280;55128;50.230;18.944;2023-11-19T03:16:07;98684.59;;;-1.75;91.68
63535;BME280;55128;50.230;18.944;2023-11-19T03:21:07;98674.19;;;-1.80;91.76
63535;BME280;55128;50.230;18.944;2023-11-19T03:26:10;98655.94;;;-1.90;91.87
63535;BME280;55128;50.230;18.944;2023-11-19T03:31:10;98637.75;;;-1.87;92.29
63535;BME280;55128;50.230;18.944;2023-11-19T03:36:11;98638.56;;;-1.90;92.48
63535;BME280;55128;50.230;18.944;2023-11-19T03:41:13;98644.72;;;-1.76;92.63
63535;BME280;55128;50.230;18.944;2023-11-19T03:46:18;98622.16;;;-1.75;92.59
63535;BME280;55128;50.230;18.944;2023-11-19T03:51:19;98597.03;;;-1.70;92.23
63535;BME280;55128;50.230;18.944;2023-11-19T03:56:19;98594.44;;;-1.64;92.11
63535;BME280;55128;50.230;18.944;2023-11-19T04:01:21;98587.50;;;-1.60;92.11
63535;BME280;55128;50.230;18.944;2023-11-19T04:06:21;98579.69;;;-1.62;92.15
63535;BME280;55128;50.230;18.944;2023-11-19T04:11:22;98567.56;;;-1.58;92.14
63535;BME280;55128;50.230;18.944;2023-11-19T04:16:26;98578.84;;;-1.54;91.34
63535;BME280;55128;50.230;18.944;2023-11-19T04:21:28;98580.59;;;-1.53;91.54
63535;BME280;55128;50.230;18.944;2023-11-19T04:26:28;98575.34;;;-1.60;91.59
63535;BME280;55128;50.230;18.944;2023-11-19T04:31:31;98561.50;;;-1.55;92.48
63535;BME280;55128;50.230;18.944;2023-11-19T04:36:32;98555.44;;;-1.58;92.76
63535;BME280;55128;50.230;18.944;2023-11-19T04:41:33;98541.53;;;-1.50;93.00
63535;BME280;55128;50.230;18.944;2023-11-19T04:46:33;98537.22;;;-1.58;92.06
63535;BME280;55128;50.230;18.944;2023-11-19T04:51:40;98546.75;;;-1.61;92.52
63535;BME280;55128;50.230;18.944;2023-11-19T04:56:45;98538.94;;;-1.61;91.68
63535;BME280;55128;50.230;18.944;2023-11-19T05:01:47;98540.66;;;-1.52;91.44
63535;BME280;55128;50.230;18.944;2023-11-19T05:06:48;98519.00;;;-1.44;91.52
63535;BME280;55128;50.230;18.944;2023-11-19T05:11:48;98503.34;;;-1.39;92.06
63535;BME280;55128;50.230;18.944;2023-11-19T05:16:48;98497.28;;;-1.41;91.96
63535;BME280;55128;50.230;18.944;2023-11-19T05:21:49;98482.56;;;-1.31;91.89
63535;BME280;55128;50.230;18.944;2023-11-19T05:26:52;98479.91;;;-1.13;92.73
63535;BME280;55128;50.230;18.944;2023-11-19T05:31:52;98466.88;;;-1.05;92.14
63535;BME280;55128;50.230;18.944;2023-11-19T05:36:54;98454.72;;;-1.06;92.11
63535;BME280;55128;50.230;18.944;2023-11-19T05:41:55;98438.25;;;-1.10;91.64
63535;BME280;55128;50.230;18.944;2023-11-19T05:46:55;98445.19;;;-1.15;91.99
63535;BME280;55128;50.230;18.944;2023-11-19T05:51:56;98449.50;;;-1.09;91.85
63535;BME280;55128;50.230;18.944;2023-11-19T05:56:56;98479.06;;;-1.09;91.69
63535;BME280;55128;50.230;18.944;2023-11-19T06:01:57;98468.56;;;-0.84;92.25
63535;BME280;55128;50.230;18.944;2023-11-19T06:06:58;98470.22;;;-0.63;92.90
63535;BME280;55128;50.230;18.944;2023-11-19T06:11:58;98458.91;;;-0.56;93.50
63535;BME280;55128;50.230;18.944;2023-11-19T06:17:01;98463.22;;;-0.46;93.47
63535;BME280;55128;50.230;18.944;2023-11-19T06:22:05;98459.66;;;-0.28;93.54
63535;BME280;55128;50.230;18.944;2023-11-19T06:27:05;98442.22;;;-0.23;93.69
63535;BME280;55128;50.230;18.944;2023-11-19T06:32:05;98425.66;;;-0.14;94.08
63535;BME280;55128;50.230;18.944;2023-11-19T06:37:06;98406.41;;;0.03;93.62
63535;BME280;55128;50.230;18.944;2023-11-19T06:42:08;98394.22;;;0.02;93.78
63535;BME280;55128;50.230;18.944;2023-11-19T06:47:09;98390.69;;;0.12;94.33
63535;BME280;55128;50.230;18.944;2023-11-19T06:52:09;98390.56;;;0.27;94.10
63535;BME280;55128;50.230;18.944;2023-11-19T06:57:10;98386.97;;;0.41;93.47
63535;BME280;55128;50.230;18.944;2023-11-19T07:02:10;98372.84;;;0.60;92.88
63535;BME280;55128;50.230;18.944;2023-11-19T07:07:11;98397.31;;;0.50;92.96
63535;BME280;55128;50.230;18.944;2023-11-19T07:12:11;98372.84;;;0.60;93.45
63535;BME280;55128;50.230;18.944;2023-11-19T07:17:13;98372.88;;;0.57;93.19
63535;BME280;55128;50.230;18.944;2023-11-19T07:22:15;98372.69;;;0.75;92.78
63535;BME280;55128;50.230;18.944;2023-11-19T07:27:16;98367.38;;;0.85;92.15
63535;BME280;55128;50.230;18.944;2023-11-19T07:32:16;98376.91;;;0.87;91.77
63535;BME280;55128;50.230;18.944;2023-11-19T07:37:17;98379.31;;;1.06;91.81
63535;BME280;55128;50.230;18.944;2023-11-19T07:42:17;98346.38;;;0.92;90.99
63535;BME280;55128;50.230;18.944;2023-11-19T07:47:18;98358.53;;;0.95;91.97
63535;BME280;55128;50.230;18.944;2023-11-19T07:52:18;98337.88;;;1.45;90.72
63535;BME280;55128;50.230;18.944;2023-11-19T07:57:18;98320.31;;;1.53;89.37
63535;BME280;55128;50.230;18.944;2023-11-19T08:02:20;98316.91;;;1.46;89.44
63535;BME280;55128;50.230;18.944;2023-11-19T08:07:21;98288.28;;;1.37;89.90
63535;BME280;55128;50.230;18.944;2023-11-19T08:12:22;98302.94;;;1.49;88.67
63535;BME280;55128;50.230;18.944;2023-11-19T08:17:23;98298.38;;;1.62;87.95
63535;BME280;55128;50.230;18.944;2023-11-19T08:22:23;98295.66;;;1.68;87.50
63535;BME280;55128;50.230;18.944;2023-11-19T08:27:25;98306.19;;;1.63;86.88
63535;BME280;55128;50.230;18.944;2023-11-19T08:32:27;98289.06;;;1.42;88.13
63535;BME280;55128;50.230;18.944;2023-11-19T08:37:27;98268.84;;;1.53;88.21
63535;BME280;55128;50.230;18.944;2023-11-19T08:42:28;98278.34;;;1.61;88.09
63535;BME280;55128;50.230;18.944;2023-11-19T08:47:29;98280.22;;;1.51;87.43
63535;BME280;55128;50.230;18.944;2023-11-19T08:52:31;98283.78;;;1.48;88.07
63535;BME280;55128;50.230;18.944;2023-11-19T08:57:32;98267.88;;;1.61;87.50
63535;BME280;55128;50.230;18.944;2023-11-19T09:02:34;98246.25;;;1.49;88.00
63535;BME280;55128;50.230;18.944;2023-11-19T09:07:34;98220.13;;;1.46;88.51
63535;BME280;55128;50.230;18.944;2023-11-19T09:12:35;98213.38;;;1.33;89.24
63535;BME280;55128;50.230;18.944;2023-11-19T09:17:35;98219.34;;;1.43;88.80
63535;BME280;55128;50.230;18.944;2023-11-19T09:22:36;98217.44;;;1.54;88.73
63535;BME280;55128;50.230;18.944;2023-11-19T09:27:36;98213.56;;;1.75;87.49
63535;BME280;55128;50.230;18.944;2023-11-19T09:32:37;98196.69;;;1.91;87.89
63535;BME280;55128;50.230;18.944;2023-11-19T09:37:37;98192.56;;;2.26;87.19
63535;BME280;55128;50.230;18.944;2023-11-19T09:42:44;98174.28;;;2.23;87.15
63535;BME280;55128;50.230;18.944;2023-11-19T09:47:51;98149.94;;;2.60;85.98
63535;BME280;55128;50.230;18.944;2023-11-19T09:52:52;98139.69;;;2.49;85.51
63535;BME280;55128;50.230;18.944;2023-11-19T09:57:53;98135.13;;;2.17;86.48
63535;BME280;55128;50.230;18.944;2023-11-19T10:02:54;98132.66;;;2.90;84.07
63535;BME280;55128;50.230;18.944;2023-11-19T10:07:57;98108.84;;;3.01;83.41
63535;BME280;55128;50.230;18.944;2023-11-19T10:12:58;98101.19;;;3.28;81.17
63535;BME280;55128;50.230;18.944;2023-11-19T10:18:00;98095.81;;;3.67;80.03
63535;BME280;55128;50.230;18.944;2023-11-19T10:23:01;98088.34;;;3.83;79.32
63535;BME280;55128;50.230;18.944;2023-11-19T10:28:01;98076.38;;;3.74;78.89
63535;BME280;55128;50.230;18.944;2023-11-19T10:33:09;98073.00;;;3.36;79.95
63535;BME280;55128;50.230;18.944;2023-11-19T10:38:14;98065.91;;;3.73;79.31
63535;BME280;55128;50.230;18.944;2023-11-19T10:43:15;98054.88;;;3.60;79.67
63535;BME280;55128;50.230;18.944;2023-11-19T10:48:16;98032.00;;;3.32;80.83
63535;BME280;55128;50.230;18.944;2023-11-19T10:53:18;98032.16;;;3.26;81.68
63535;BME280;55128;50.230;18.944;2023-11-19T10:58:19;98023.25;;;3.33;81.49
63535;BME280;55128;50.230;18.944;2023-11-19T11:03:20;98026.47;;;3.43;82.68
63535;BME280;55128;50.230;18.944;2023-11-19T11:08:24;98015.50;;;3.28;82.88
63535;BME280;55128;50.230;18.944;2023-11-19T11:13:25;98019.75;;;2.98;85.11
63535;BME280;55128;50.230;18.944;2023-11-19T11:18:27;98003.22;;;3.30;84.86
63535;BME280;55128;50.230;18.944;2023-11-19T11:29:10;97976.88;;;3.02;86.51
63535;BME280;55128;50.230;18.944;2023-11-19T11:39:24;97967.63;;;2.51;87.99
63535;BME280;55128;50.230;18.944;2023-11-19T11:44:58;97953.00;;;2.43;89.15
63535;BME280;55128;50.230;18.944;2023-11-19T11:50:06;97946.38;;;2.28;89.25
63535;BME280;55128;50.230;18.944;2023-11-19T11:55:09;97939.59;;;2.19;89.59
63535;BME280;55128;50.230;18.944;2023-11-19T12:00:11;97941.16;;;2.28;89.57
63535;BME280;55128;50.230;18.944;2023-11-19T12:05:11;97926.53;;;2.18;89.40
63535;BME280;55128;50.230;18.944;2023-11-19T12:10:13;97920.97;;;1.96;90.69
63535;BME280;55128;50.230;18.944;2023-11-19T12:15:16;97917.91;;;2.14;90.20
63535;BME280;55128;50.230;18.944;2023-11-19T12:20:18;97905.47;;;2.24;90.15
63535;BME280;55128;50.230;18.944;2023-11-19T12:25:20;97902.94;;;2.19;90.01
63535;BME280;55128;50.230;18.944;2023-11-19T12:30:24;97897.19;;;2.41;89.89
63535;BME280;55128;50.230;18.944;2023-11-19T12:35:25;97887.38;;;2.49;89.75
63535;BME280;55128;50.230;18.944;2023-11-19T12:40:26;97872.59;;;2.46;89.16
63535;BME280;55128;50.230;18.944;2023-11-19T12:45:38;97864.94;;;2.39;89.86
63535;BME280;55128;50.230;18.944;2023-11-19T12:55:53;97846.75;;;2.32;90.92
63535;BME280;55128;50.230;18.944;2023-11-19T13:00:59;97854.28;;;2.46;90.72
63535;BME280;55128;50.230;18.944;2023-11-19T13:06:07;97850.25;;;2.66;89.63
63535;BME280;55128;50.230;18.944;2023-11-19T13:11:08;97839.97;;;2.58;90.03
63535;BME280;55128;50.230;18.944;2023-11-19T13:16:10;97828.50;;;2.62;90.35
63535;BME280;55128;50.230;18.944;2023-11-19T13:21:10;97820.97;;;2.83;90.71
63535;BME280;55128;50.230;18.944;2023-11-19T13:26:11;97825.78;;;2.98;90.18
63535;BME280;55128;50.230;18.944;2023-11-19T13:31:12;97821.19;;;3.06;90.13
63535;BME280;55128;50.230;18.944;2023-11-19T13:36:12;97807.75;;;2.87;90.82
63535;BME280;55128;50.230;18.944;2023-11-19T13:41:13;97811.84;;;2.96;90.98
63535;BME280;55128;50.230;18.944;2023-11-19T13:46:13;97794.03;;;3.07;91.41
63535;BME280;55128;50.230;18.944;2023-11-19T13:51:14;97796.56;;;3.12;91.72
63535;BME280;55128;50.230;18.944;2023-11-19T13:56:17;97793.28;;;3.34;91.68
63535;BME280;55128;50.230;18.944;2023-11-19T14:01:17;97797.81;;;3.28;92.37
63535;BME280;55128;50.230;18.944;2023-11-19T14:06:18;97793.91;;;3.42;92.89
63535;BME280;55128;50.230;18.944;2023-11-19T14:11:19;97778.63;;;3.55;93.26
63535;BME280;55128;50.230;18.944;2023-11-19T14:16:19;97765.94;;;3.41;93.85
63535;BME280;55128;50.230;18.944;2023-11-19T14:21:20;97770.63;;;3.59;93.82
63535;BME280;55128;50.230;18.944;2023-11-19T14:26:20;97771.19;;;3.69;94.10
63535;BME280;55128;50.230;18.944;2023-11-19T14:31:21;97766.75;;;3.71;93.95
63535;BME280;55128;50.230;18.944;2023-11-19T14:36:21;97766.94;;;3.65;94.50
63535;BME280;55128;50.230;18.944;2023-11-19T14:41:22;97758.63;;;3.79;94.84
63535;BME280;55128;50.230;18.944;2023-11-19T14:46:22;97769.66;;;3.88;94.42
63535;BME280;55128;50.230;18.944;2023-11-19T14:51:23;97765.03;;;3.97;94.55
63535;BME280;55128;50.230;18.944;2023-11-19T14:56:23;97759.69;;;4.00;94.20
63535;BME280;55128;50.230;18.944;2023-11-19T15:01:24;97764.28;;;4.18;94.22
63535;BME280;55128;50.230;18.944;2023-11-19T15:06:25;97753.78;;;4.18;94.16
63535;BME280;55128;50.230;18.944;2023-11-19T15:11:31;97770.97;;;4.28;93.76
63535;BME280;55128;50.230;18.944;2023-11-19T15:16:31;97780.34;;;4.36;93.52
63535;BME280;55128;50.230;18.944;2023-11-19T15:21:33;97779.47;;;4.35;93.87
63535;BME280;55128;50.230;18.944;2023-11-19T15:26:34;97768.91;;;4.37;94.25
63535;BME280;55128;50.230;18.944;2023-11-19T15:31:35;97771.84;;;4.27;94.77
63535;BME280;55128;50.230;18.944;2023-11-19T15:36:35;97768.28;;;4.30;94.90
63535;BME280;55128;50.230;18.944;2023-11-19T15:41:36;97770.66;;;4.38;94.84
63535;BME280;55128;50.230;18.944;2023-11-19T15:46:40;97768.59;;;4.46;94.14
63535;BME280;55128;50.230;18.944;2023-11-19T15:51:40;97777.19;;;4.51;94.57
63535;BME280;55128;50.230;18.944;2023-11-19T15:56:41;97769.25;;;4.53;94.38
63535;BME280;55128;50.230;18.944;2023-11-19T16:01:41;97775.88;;;4.63;93.90
63535;BME280;55128;50.230;18.944;2023-11-19T16:06:42;97767.94;;;4.64;94.29
63535;BME280;55128;50.230;18.944;2023-11-19T16:11:43;97756.00;;;4.79;94.15
63535;BME280;55128;50.230;18.944;2023-11-19T16:16:43;97753.81;;;4.67;94.10
63535;BME280;55128;50.230;18.944;2023-11-19T16:21:44;97755.59;;;4.66;94.08
63535;BME280;55128;50.230;18.944;2023-11-19T16:26:45;97765.72;;;4.77;93.97
63535;BME280;55128;50.230;18.944;2023-11-19T16:31:45;97764.94;;;4.75;93.81
63535;BME280;55128;50.230;18.944;2023-11-19T16:36:46;97762.25;;;4.77;93.71
63535;BME280;55128;50.230;18.944;2023-11-19T16:41:46;97767.34;;;4.81;94.08
63535;BME280;55128;50.230;18.944;2023-11-19T16:46:47;97761.16;;;4.82;94.08
63535;BME280;55128;50.230;18.944;2023-11-19T16:51:47;97748.06;;;4.81;94.36
63535;BME280;55128;50.230;18.944;2023-11-19T16:56:48;97750.72;;;4.81;94.53
63535;BME280;55128;50.230;18.944;2023-11-19T17:01:48;97759.94;;;4.91;94.63
63535;BME280;55128;50.230;18.944;2023-11-19T17:06:49;97777.50;;;5.14;93.35
63535;BME280;55128;50.230;18.944;2023-11-19T17:11:49;97776.78;;;5.11;93.41
63535;BME280;55128;50.230;18.944;2023-11-19T17:16:49;97764.97;;;5.21;93.88
63535;BME280;55128;50.230;18.944;2023-11-19T17:21:50;97754.81;;;5.12;93.32
63535;BME280;55128;50.230;18.944;2023-11-19T17:26:50;97754.41;;;5.22;93.76
63535;BME280;55128;50.230;18.944;2023-11-19T17:31:51;97764.81;;;5.25;93.70
63535;BME280;55128;50.230;18.944;2023-11-19T17:36:51;97773.16;;;5.13;94.01
63535;BME280;55128;50.230;18.944;2023-11-19T17:41:51;97776.00;;;5.31;93.69
63535;BME280;55128;50.230;18.944;2023-11-19T17:46:52;97772.56;;;5.29;93.42
63535;BME280;55128;50.230;18.944;2023-11-19T17:51:54;97768.97;;;5.31;93.63
63535;BME280;55128;50.230;18.944;2023-11-19T17:56:54;97766.16;;;5.36;93.29
63535;BME280;55128;50.230;18.944;2023-11-19T18:01:55;97767.94;;;5.35;93.13
63535;BME280;55128;50.230;18.944;2023-11-19T18:06:58;97769.88;;;5.30;93.55
63535;BME280;55128;50.230;18.944;2023-11-19T18:11:58;97768.75;;;5.37;93.51
63535;BME280;55128;50.230;18.944;2023-11-19T18:16:59;97760.78;;;5.39;93.96
63535;BME280;55128;50.230;18.944;2023-11-19T18:22:00;97740.63;;;5.38;93.43
63535;BME280;55128;50.230;18.944;2023-11-19T18:27:03;97747.53;;;5.18;94.45
63535;BME280;55128;50.230;18.944;2023-11-19T18:32:03;97748.00;;;5.06;94.54
63535;BME280;55128;50.230;18.944;2023-11-19T18:37:04;97743.47;;;5.10;94.26
63535;BME280;55128;50.230;18.944;2023-11-19T18:42:05;97740.25;;;5.25;94.28
63535;BME280;55128;50.230;18.944;2023-11-19T18:47:05;97746.41;;;5.25;93.38
63535;BME280;55128;50.230;18.944;2023-11-19T18:52:06;97754.09;;;5.30;94.32
63535;BME280;55128;50.230;18.944;2023-11-19T18:57:07;97747.00;;;5.32;93.74
63535;BME280;55128;50.230;18.944;2023-11-19T19:02:08;97747.94;;;5.31;94.53
63535;BME280;55128;50.230;18.944;2023-11-19T19:07:09;97752.22;;;5.34;94.50
63535;BME280;55128;50.230;18.944;2023-11-19T19:12:10;97745.53;;;5.47;94.00
63535;BME280;55128;50.230;18.944;2023-11-19T19:17:10;97739.19;;;5.53;94.10
63535;BME280;55128;50.230;18.944;2023-11-19T19:22:11;97746.75;;;5.60;93.54
63535;BME280;55128;50.230;18.944;2023-11-19T19:27:11;97738.59;;;5.67;93.38
63535;BME280;55128;50.230;18.944;2023-11-19T19:32:12;97753.28;;;5.72;92.51
63535;BME280;55128;50.230;18.944;2023-11-19T19:37:12;97745.59;;;5.68;93.62
63535;BME280;55128;50.230;18.944;2023-11-19T19:42:13;97751.66;;;5.70;93.85
63535;BME280;55128;50.230;18.944;2023-11-19T19:47:15;97783.06;;;5.74;93.92
63535;BME280;55128;50.230;18.944;2023-11-19T19:52:17;97766.25;;;5.78;94.19
63535;BME280;55128;50.230;18.944;2023-11-19T19:57:18;97757.41;;;5.79;94.47
63535;BME280;55128;50.230;18.944;2023-11-19T20:02:18;97758.75;;;5.90;94.56
63535;BME280;55128;50.230;18.944;2023-11-19T20:07:18;97767.16;;;5.77;95.42
63535;BME280;55128;50.230;18.944;2023-11-19T20:12:19;97770.63;;;5.78;96.41
63535;BME280;55128;50.230;18.944;2023-11-19T20:17:20;97768.34;;;5.69;96.93
63535;BME280;55128;50.230;18.944;2023-11-19T20:22:20;97753.44;;;5.69;96.71
63535;BME280;55128;50.230;18.944;2023-11-19T20:27:20;97754.22;;;5.71;97.47
63535;BME280;55128;50.230;18.944;2023-11-19T20:32:21;97748.19;;;5.69;97.99
63535;BME280;55128;50.230;18.944;2023-11-19T20:37:22;97750.66;;;5.72;97.96
63535;BME280;55128;50.230;18.944;2023-11-19T20:42:22;97752.19;;;5.78;97.37
63535;BME280;55128;50.230;18.944;2023-11-19T20:47:23;97751.47;;;5.74;97.57
63535;BME280;55128;50.230;18.944;2023-11-19T20:52:23;97749.13;;;5.89;96.95
63535;BME280;55128;50.230;18.944;2023-11-19T20:57:24;97747.72;;;5.80;96.63
63535;BME280;55128;50.230;18.944;2023-11-19T21:02:24;97754.50;;;5.85;96.67
63535;BME280;55128;50.230;18.944;2023-11-19T21:07:24;97749.78;;;5.95;97.13
63535;BME280;55128;50.230;18.944;2023-11-19T21:12:26;97748.28;;;5.88;96.29
63535;BME280;55128;50.230;18.944;2023-11-19T21:17:26;97741.66;;;6.00;96.59
63535;BME280;55128;50.230;18.944;2023-11-19T21:22:27;97751.28;;;6.01;96.48
63535;BME280;55128;50.230;18.944;2023-11-19T21:27:28;97751.25;;;6.02;96.27
63535;BME280;55128;50.230;18.944;2023-11-19T21:32:29;97739.97;;;5.99;96.10
63535;BME280;55128;50.230;18.944;2023-11-19T21:37:30;97735.66;;;5.74;96.02
63535;BME280;55128;50.230;18.944;2023-11-19T21:42:30;97749.66;;;5.76;96.62
63535;BME280;55128;50.230;18.944;2023-11-19T21:47:31;97739.28;;;5.72;96.24
63535;BME280;55128;50.230;18.944;2023-11-19T21:52:33;97737.66;;;5.69;97.32
63535;BME280;55128;50.230;18.944;2023-11-19T21:57:35;97741.53;;;5.81;96.97
63535;BME280;55128;50.230;18.944;2023-11-19T22:02:37;97740.31;;;5.90;96.62
63535;BME280;55128;50.230;18.944;2023-11-19T22:07:37;97741.97;;;5.92;96.86
63535;BME280;55128;50.230;18.944;2023-11-19T22:12:38;97746.09;;;5.99;96.58
63535;BME280;55128;50.230;18.944;2023-11-19T22:17:40;97736.13;;;6.06;96.59
63535;BME280;55128;50.230;18.944;2023-11-19T22:22:41;97733.72;;;6.01;96.47
63535;BME280;55128;50.230;18.944;2023-11-19T22:27:41;97736.88;;;6.10;96.77
63535;BME280;55128;50.230;18.944;2023-11-19T22:32:41;97727.53;;;6.02;96.20
63535;BME280;55128;50.230;18.944;2023-11-19T22:37:42;97737.81;;;6.09;97.07
63535;BME280;55128;50.230;18.944;2023-11-19T22:42:42;97724.19;;;6.19;96.26
63535;BME280;55128;50.230;18.944;2023-11-19T22:47:43;97730.13;;;6.23;96.20
63535;BME280;55128;50.230;18.944;2023-11-19T22:52:43;97738.66;;;6.09;97.04
63535;BME280;55128;50.230;18.944;2023-11-19T22:57:44;97722.72;;;6.33;96.37
63535;BME280;55128;50.230;18.944;2023-11-19T23:02:45;97717.06;;;6.21;97.02
63535;BME280;55128;50.230;18.944;2023-11-19T23:07:45;97725.41;;;6.31;96.48
63535;BME280;55128;50.230;18.944;2023-11-19T23:12:46;97733.00;;;6.39;96.29
63535;BME280;55128;50.230;18.944;2023-11-19T23:17:46;97739.50;;;6.30;96.72
63535;BME280;55128;50.230;18.944;2023-11-19T23:22:47;97744.53;;;6.36;96.51
63535;BME280;55128;50.230;18.944;2023-11-19T23:27:47;97739.25;;;6.36;96.49
63535;BME280;55128;50.230;18.944;2023-11-19T23:32:47;97745.38;;;6.37;96.51
63535;BME280;55128;50.230;18.944;2023-11-19T23:37:48;97738.66;;;6.50;96.16
63535;BME280;55128;50.230;18.944;2023-11-19T23:42:49;97730.06;;;6.45;96.37
63535;BME280;55128;50.230;18.944;2023-11-19T23:47:49;97745.88;;;6.25;96.74
63535;BME280;55128;50.230;18.944;2023-11-19T23:52:50;97750.31;;;6.24;96.87
63535;BME280;55128;50.230;18.944;2023-11-19T23:57:50;97745.31;;;6.18;96.63
